Time;durP1;ratioP1;P1;durP2;ratioP2;P2;SDS_P1;SDS_P2;PMS_P1;PMS_P2;Temp;Humidity;BMP_temperature;BMP_pressure;BME280_temperature;BME280_humidity;BME280_pressure;Samples;Min_cycle;Max_cycle;Signal;HPM_P1;HPM_P2
2023/09/11 00:01:02;;;;;;;29.35;13.80;;;21.20;99.90;;;;;;4932777;28;20047;-71
2023/09/11 00:03:28;;;;;;;26.52;13.27;;;21.20;99.90;;;;;;4912366;28;251979;-70
2023/09/11 00:06:04;;;;;;;27.67;13.38;;;21.20;99.90;;;;;;4950137;28;20044;-70
2023/09/11 00:08:30;;;;;;;24.92;13.43;;;21.10;99.90;;;;;;4907862;28;27587;-70
2023/09/11 00:10:57;;;;;;;26.80;13.32;;;21.10;99.90;;;;;;4947260;28;20493;-70
2023/09/11 00:13:23;;;;;;;25.45;12.88;;;21.10;99.90;;;;;;4919554;28;104243;-70
2023/09/11 00:15:49;;;;;;;25.20;12.38;;;21.10;99.90;;;;;;4962564;28;20043;-71
2023/09/11 00:18:15;;;;;;;23.65;12.10;;;21.00;99.90;;;;;;4905813;28;206896;-71
2023/09/11 00:20:42;;;;;;;26.25;13.27;;;21.10;99.90;;;;;;4951370;28;20411;-70
2023/09/11 00:23:08;;;;;;;27.83;12.93;;;21.10;99.90;;;;;;4920075;28;204255;-69
2023/09/11 00:25:37;;;;;;;28.30;12.85;;;21.10;99.90;;;;;;4955859;28;20070;-70
2023/09/11 00:28:03;;;;;;;23.70;12.60;;;21.00;99.90;;;;;;4906021;28;234005;-71
2023/09/11 00:30:30;;;;;;;26.15;12.73;;;21.00;99.90;;;;;;4960294;28;20058;-71
2023/09/11 00:32:56;;;;;;;27.10;12.88;;;21.00;99.90;;;;;;4903114;28;155240;-70
2023/09/11 00:35:22;;;;;;;24.90;13.32;;;21.00;99.90;;;;;;4960443;28;20051;-71
2023/09/11 00:37:48;;;;;;;28.90;13.55;;;21.00;99.90;;;;;;4907527;28;222965;-70
2023/09/11 00:40:14;;;;;;;32.28;13.80;;;20.90;99.90;;;;;;4949521;28;20050;-71
2023/09/11 00:42:40;;;;;;;30.55;13.80;;;20.90;99.90;;;;;;4915369;28;20055;-70
2023/09/11 00:45:07;;;;;;;30.38;13.15;;;20.90;99.90;;;;;;4917654;28;34758;-69
2023/09/11 00:47:34;;;;;;;28.25;12.98;;;20.90;99.90;;;;;;4932912;28;20051;-71
2023/09/11 00:50:00;;;;;;;28.55;13.32;;;20.90;99.90;;;;;;4931147;28;98590;-70
2023/09/11 00:52:27;;;;;;;31.80;13.35;;;20.90;99.90;;;;;;4938856;28;20514;-70
2023/09/11 00:54:54;;;;;;;28.85;12.70;;;20.80;99.90;;;;;;4915735;28;120762;-70
2023/09/11 00:57:21;;;;;;;32.70;13.73;;;20.80;99.90;;;;;;4948325;28;20072;-70
2023/09/11 00:59:48;;;;;;;31.55;13.50;;;20.80;99.90;;;;;;4901610;28;223122;-71
2023/09/11 01:02:15;;;;;;;30.65;12.80;;;20.80;99.90;;;;;;4959882;28;20051;-70
2023/09/11 01:04:45;;;;;;;25.88;12.43;;;20.80;99.90;;;;;;4901839;28;22589;-71
2023/09/11 01:07:12;;;;;;;24.40;12.55;;;20.80;99.90;;;;;;4945250;28;20062;-70
2023/09/11 01:09:39;;;;;;;31.00;13.30;;;20.80;99.90;;;;;;4922884;28;59871;-70
2023/09/11 01:12:07;;;;;;;25.15;12.68;;;20.70;99.90;;;;;;4930736;29;20055;-71
2023/09/11 01:14:35;;;;;;;30.00;13.23;;;20.70;99.90;;;;;;4917307;28;196730;-71
2023/09/11 01:17:13;;;;;;;29.75;12.88;;;20.70;99.90;;;;;;4949968;28;20058;-70
2023/09/11 01:19:51;;;;;;;25.92;12.23;;;20.70;99.90;;;;;;4917096;28;233389;-71
2023/09/11 01:22:30;;;;;;;26.73;12.43;;;20.70;99.90;;;;;;4946658;28;20413;-71
2023/09/11 01:25:15;;;;;;;26.35;13.00;;;20.70;99.90;;;;;;4897796;28;233403;-71
2023/09/11 01:28:17;;;;;;;26.35;13.05;;;20.70;99.90;;;;;;4921085;28;20058;-70
2023/09/11 01:30:45;;;;;;;32.55;13.27;;;20.60;99.90;;;;;;4947188;28;20058;-70
2023/09/11 01:33:12;;;;;;;32.17;12.65;;;20.70;99.90;;;;;;4910641;28;61008;-70
2023/09/11 01:35:38;;;;;;;24.50;12.63;;;20.60;99.90;;;;;;4945005;28;20619;-71
2023/09/11 01:38:05;;;;;;;29.65;13.02;;;20.60;99.90;;;;;;4908550;28;38368;-70
2023/09/11 01:40:34;;;;;;;30.05;13.05;;;20.60;99.90;;;;;;4962598;28;20066;-70
2023/09/11 01:43:02;;;;;;;27.10;11.98;;;20.60;99.90;;;;;;4913795;28;140356;-69
2023/09/11 01:45:31;;;;;;;27.52;12.32;;;20.60;99.90;;;;;;4956941;28;20059;-70
2023/09/11 01:48:00;;;;;;;23.43;12.30;;;20.60;99.90;;;;;;4901784;28;252546;-70
2023/09/11 01:50:29;;;;;;;28.17;12.30;;;20.60;99.90;;;;;;4950545;28;20047;-69
2023/09/11 01:52:55;;;;;;;26.90;12.15;;;20.50;99.90;;;;;;4892554;28;186834;-69
2023/09/11 01:55:21;;;;;;;28.50;13.32;;;20.50;99.90;;;;;;4940949;28;20055;-70
2023/09/11 01:57:47;;;;;;;26.10;12.50;;;20.50;99.90;;;;;;4936408;28;29243;-68
2023/09/11 02:00:14;;;;;;;23.98;12.68;;;20.50;99.90;;;;;;4943938;28;20109;-70
2023/09/11 02:02:40;;;;;;;26.15;12.45;;;20.50;99.90;;;;;;4921575;28;20054;-70
2023/09/11 02:05:07;;;;;;;25.95;12.52;;;20.50;99.90;;;;;;4931345;28;221807;-70
2023/09/11 02:07:33;;;;;;;28.63;12.30;;;20.40;99.90;;;;;;4936060;28;20043;-70
2023/09/11 02:09:59;;;;;;;26.73;11.27;;;20.40;99.90;;;;;;4940629;28;26961;-70
2023/09/11 02:12:25;;;;;;;27.15;13.15;;;20.40;99.90;;;;;;4939460;28;20082;-70
2023/09/11 02:14:51;;;;;;;28.55;13.13;;;20.40;99.90;;;;;;4921034;28;36165;-70
2023/09/11 02:17:17;;;;;;;25.48;12.85;;;20.30;99.90;;;;;;4962966;28;20058;-70
2023/09/11 02:19:43;;;;;;;26.92;12.55;;;20.30;99.90;;;;;;4904082;28;238923;-70
2023/09/11 02:22:09;;;;;;;29.77;12.85;;;20.30;99.90;;;;;;4949160;28;20494;-70
2023/09/11 02:24:36;;;;;;;26.60;13.18;;;20.30;99.90;;;;;;4895332;28;227606;-70
2023/09/11 02:27:02;;;;;;;27.63;13.10;;;20.30;99.90;;;;;;4950265;28;20047;-69
2023/09/11 02:29:28;;;;;;;26.13;13.05;;;20.30;99.90;;;;;;4923605;28;21370;-69
2023/09/11 02:31:54;;;;;;;25.65;12.30;;;20.30;99.90;;;;;;4952148;28;20506;-70
2023/09/11 02:34:20;;;;;;;26.83;12.93;;;20.20;99.90;;;;;;4914997;28;190648;-70
2023/09/11 02:36:46;;;;;;;27.38;12.52;;;20.30;99.90;;;;;;4955303;28;20048;-71
2023/09/11 02:39:12;;;;;;;32.97;13.00;;;20.20;99.90;;;;;;4908042;28;63138;-69
2023/09/11 02:41:39;;;;;;;28.55;12.85;;;20.20;99.90;;;;;;4946255;28;20052;-69
2023/09/11 02:44:05;;;;;;;33.03;13.30;;;20.30;99.90;;;;;;4912326;28;159725;-70
2023/09/11 02:46:31;;;;;;;30.00;12.18;;;20.20;99.90;;;;;;4949711;28;20062;-70
2023/09/11 02:48:57;;;;;;;29.58;12.63;;;20.30;99.90;;;;;;4887530;28;69068;-70
2023/09/11 02:51:25;;;;;;;26.17;12.60;;;20.20;99.90;;;;;;4945399;28;20054;-70
2023/09/11 02:53:51;;;;;;;23.52;12.38;;;20.20;99.90;;;;;;4897675;28;174299;-70
2023/09/11 02:56:17;;;;;;;23.17;12.30;;;20.20;99.90;;;;;;4935752;28;20287;-70
2023/09/11 02:58:43;;;;;;;28.38;13.18;;;20.10;99.90;;;;;;4900524;28;228363;-70
2023/09/11 03:01:09;;;;;;;29.85;12.52;;;20.10;99.90;;;;;;4954490;28;20760;-69
2023/09/11 03:03:35;;;;;;;28.40;13.60;;;20.10;99.90;;;;;;4904100;28;91061;-69
2023/09/11 03:06:03;;;;;;;31.98;13.50;;;20.10;99.90;;;;;;4949003;28;20055;-70
2023/09/11 03:08:29;;;;;;;23.60;12.88;;;20.10;99.90;;;;;;4911126;28;140904;-70
2023/09/11 03:11:12;;;;;;;31.35;13.32;;;20.00;99.90;;;;;;4954201;28;20047;-70
2023/09/11 03:13:39;;;;;;;26.67;13.32;;;20.00;99.90;;;;;;4901665;28;176540;-69
2023/09/11 03:16:13;;;;;;;33.63;13.57;;;20.00;99.90;;;;;;4951017;28;20047;-70
2023/09/11 03:18:40;;;;;;;28.70;13.05;;;20.00;99.90;;;;;;4914014;28;121126;-69
2023/09/11 03:21:07;;;;;;;26.83;14.10;;;20.00;99.90;;;;;;4946143;28;20055;-70
2023/09/11 03:23:34;;;;;;;26.25;12.50;;;20.00;99.90;;;;;;4902317;28;165132;-71
2023/09/11 03:26:00;;;;;;;27.35;13.07;;;20.00;99.90;;;;;;4941910;28;20050;-70
2023/09/11 03:28:28;;;;;;;27.25;13.15;;;20.00;99.90;;;;;;4905395;28;162163;-70
2023/09/11 03:30:54;;;;;;;31.67;13.43;;;20.00;99.90;;;;;;4951249;28;20521;-70
2023/09/11 03:33:21;;;;;;;29.75;13.20;;;20.00;99.90;;;;;;4907364;28;20047;-70
2023/09/11 03:35:47;;;;;;;29.10;13.55;;;20.00;99.90;;;;;;4919589;28;20414;-70
2023/09/11 03:38:13;;;;;;;24.35;12.80;;;20.00;99.90;;;;;;4902876;28;130255;-70
2023/09/11 03:40:41;;;;;;;29.50;14.18;;;19.90;99.90;;;;;;4945721;28;20059;-70
2023/09/11 03:43:07;;;;;;;26.98;12.93;;;19.90;99.90;;;;;;4906353;28;50372;-70
2023/09/11 03:45:33;;;;;;;26.60;13.85;;;19.90;99.90;;;;;;4943898;28;20063;-70
2023/09/11 03:47:59;;;;;;;30.40;13.48;;;19.90;99.90;;;;;;4910629;28;54229;-70
2023/09/11 03:50:25;;;;;;;28.25;13.93;;;19.90;99.90;;;;;;4960200;28;20534;-68
2023/09/11 03:52:52;;;;;;;31.63;14.57;;;19.90;99.90;;;;;;4898506;28;111744;-70
2023/09/11 03:55:18;;;;;;;29.42;13.95;;;19.90;99.90;;;;;;4947269;28;20457;-70
2023/09/11 03:57:44;;;;;;;28.90;13.15;;;19.90;99.90;;;;;;4916905;28;20060;-69
2023/09/11 04:00:11;;;;;;;30.98;14.20;;;19.90;99.90;;;;;;4926987;28;275051;-69
2023/09/11 04:02:38;;;;;;;27.48;13.93;;;19.90;99.90;;;;;;4916493;28;20117;-69
2023/09/11 04:05:05;;;;;;;32.67;13.63;;;19.90;99.90;;;;;;4941991;28;218989;-70
2023/09/11 04:07:35;;;;;;;32.90;13.23;;;19.90;99.90;;;;;;4918888;28;20066;-69
2023/09/11 04:10:01;;;;;;;30.98;13.07;;;19.90;99.90;;;;;;4947587;28;122899;-69
2023/09/11 04:12:28;;;;;;;36.03;14.07;;;19.80;99.90;;;;;;4930281;28;20062;-68
2023/09/11 04:14:54;;;;;;;32.47;14.10;;;19.80;99.90;;;;;;4920050;28;237435;-69
2023/09/11 04:17:20;;;;;;;34.50;14.25;;;19.80;99.90;;;;;;4945578;28;20058;-69
2023/09/11 04:19:46;;;;;;;26.90;13.77;;;19.80;99.90;;;;;;4917126;28;155102;-70
2023/09/11 04:22:12;;;;;;;26.52;13.80;;;19.80;99.90;;;;;;4947255;28;20055;-69
2023/09/11 04:24:38;;;;;;;34.92;13.68;;;19.80;99.90;;;;;;4910069;28;265253;-69
2023/09/11 04:27:05;;;;;;;31.85;13.60;;;19.80;99.90;;;;;;4946519;28;20066;-69
2023/09/11 04:29:31;;;;;;;25.52;12.82;;;19.70;99.90;;;;;;4892545;28;238554;-70
2023/09/11 04:31:57;;;;;;;31.23;13.32;;;19.70;99.90;;;;;;4946178;28;20437;-70
2023/09/11 04:34:24;;;;;;;30.63;14.18;;;19.70;99.90;;;;;;4907784;28;63788;-70
2023/09/11 04:36:50;;;;;;;28.80;13.02;;;19.70;99.90;;;;;;4946477;28;20062;-69
2023/09/11 04:39:16;;;;;;;30.30;13.10;;;19.70;99.90;;;;;;4912469;28;178700;-70
2023/09/11 04:41:43;;;;;;;26.80;13.30;;;19.70;99.90;;;;;;4945720;28;20051;-70
2023/09/11 04:44:09;;;;;;;27.92;13.13;;;19.70;99.90;;;;;;4902301;28;75488;-69
2023/09/11 04:46:35;;;;;;;25.42;12.20;;;19.60;99.90;;;;;;4946701;28;20047;-70
2023/09/11 04:49:01;;;;;;;23.38;12.93;;;19.70;99.90;;;;;;4900456;28;233016;-70
2023/09/11 04:51:27;;;;;;;31.27;14.20;;;19.70;99.90;;;;;;4949716;28;20617;-69
2023/09/11 04:53:53;;;;;;;28.13;13.55;;;19.60;99.90;;;;;;4886658;28;126410;-69
2023/09/11 04:56:19;;;;;;;30.92;14.40;;;19.60;99.90;;;;;;4942516;28;20063;-69
2023/09/11 04:58:45;;;;;;;26.65;13.73;;;19.60;99.90;;;;;;4904454;28;245727;-69
2023/09/11 05:01:12;;;;;;;30.92;13.77;;;19.60;99.90;;;;;;4947227;28;20059;-70
2023/09/11 05:03:39;;;;;;;27.25;13.25;;;19.60;99.90;;;;;;4907072;28;186975;-69
2023/09/11 05:06:05;;;;;;;24.73;12.45;;;19.60;99.90;;;;;;4951840;28;20051;-69
2023/09/11 05:08:32;;;;;;;30.58;13.93;;;19.60;99.90;;;;;;4896188;28;111698;-70
2023/09/11 05:11:01;;;;;;;29.10;13.73;;;19.60;99.90;;;;;;4934525;28;20047;-70
2023/09/11 05:13:27;;;;;;;28.08;13.15;;;19.60;99.90;;;;;;4898014;28;22634;-70
2023/09/11 05:15:53;;;;;;;33.53;13.63;;;19.70;99.90;;;;;;4938348;28;20062;-70
2023/09/11 05:18:19;;;;;;;29.27;13.60;;;19.70;99.90;;;;;;4907791;28;35591;-70
2023/09/11 05:20:47;;;;;;;26.42;13.77;;;19.70;99.90;;;;;;4943365;28;20074;-69
2023/09/11 05:23:13;;;;;;;25.48;12.75;;;19.70;99.90;;;;;;4906575;28;181517;-69
2023/09/11 05:25:39;;;;;;;28.63;13.35;;;19.80;99.90;;;;;;4939685;28;20062;-69
2023/09/11 05:28:05;;;;;;;30.52;12.85;;;19.80;99.90;;;;;;4906748;28;42490;-70
2023/09/11 05:30:32;;;;;;;29.77;13.27;;;19.80;99.90;;;;;;4941654;28;20051;-69
2023/09/11 05:32:58;;;;;;;31.98;13.15;;;19.90;99.90;;;;;;4896778;28;214074;-69
2023/09/11 05:35:24;;;;;;;31.10;13.93;;;19.90;99.90;;;;;;4926716;28;20051;-70
2023/09/11 05:37:50;;;;;;;35.05;13.27;;;20.00;99.90;;;;;;4902259;28;152504;-69
2023/09/11 05:40:16;;;;;;;29.25;13.95;;;20.00;99.90;;;;;;4953891;28;20437;-70
2023/09/11 05:42:43;;;;;;;34.97;12.95;;;20.00;99.90;;;;;;4928836;28;20044;-69
2023/09/11 05:45:09;;;;;;;36.60;13.73;;;20.10;99.90;;;;;;4911504;28;94990;-69
2023/09/11 05:47:36;;;;;;;38.05;13.27;;;20.10;99.90;;;;;;4931994;28;20054;-70
2023/09/11 05:50:04;;;;;;;36.17;13.35;;;20.20;99.90;;;;;;4928603;28;208492;-69
2023/09/11 05:52:30;;;;;;;32.88;13.15;;;20.30;99.90;;;;;;4917851;28;20055;-69
2023/09/11 05:54:56;;;;;;;31.38;12.93;;;20.40;99.90;;;;;;4931306;28;134006;-69
2023/09/11 05:57:22;;;;;;;29.15;13.13;;;20.40;99.90;;;;;;4941466;28;20051;-69
2023/09/11 05:59:48;;;;;;;34.60;13.02;;;20.50;99.90;;;;;;4896363;28;198765;-69
2023/09/11 06:02:14;;;;;;;33.13;13.35;;;20.60;99.90;;;;;;4939600;28;20673;-69
2023/09/11 06:04:40;;;;;;;32.60;13.95;;;20.70;99.90;;;;;;4886770;28;226497;-68
2023/09/11 06:07:07;;;;;;;30.02;13.00;;;20.80;99.90;;;;;;4957165;28;20055;-69
2023/09/11 06:09:33;;;;;;;27.48;12.85;;;20.90;99.90;;;;;;4921807;28;20064;-69
2023/09/11 06:11:59;;;;;;;28.42;12.85;;;21.20;99.90;;;;;;4946339;28;20055;-70
2023/09/11 06:14:25;;;;;;;27.52;12.10;;;21.70;99.90;;;;;;4920183;28;85619;-69
2023/09/11 06:16:51;;;;;;;28.42;11.88;;;22.10;99.90;;;;;;4939396;28;20066;-69
2023/09/11 06:19:17;;;;;;;24.50;11.90;;;22.30;99.90;;;;;;4907732;28;174398;-69
2023/09/11 06:21:46;;;;;;;24.70;12.15;;;22.50;99.90;;;;;;4944437;28;20425;-69
2023/09/11 06:24:13;;;;;;;29.25;11.73;;;22.80;99.90;;;;;;4914275;28;66911;-69
2023/09/11 06:26:42;;;;;;;28.75;11.50;;;23.20;99.90;;;;;;4949234;28;20047;-69
2023/09/11 06:29:08;;;;;;;29.70;11.38;;;23.60;99.90;;;;;;4912774;28;243671;-69
2023/09/11 06:31:35;;;;;;;30.38;11.45;;;23.80;99.90;;;;;;4953306;28;20467;-69
2023/09/11 06:34:01;;;;;;;25.52;11.02;;;24.10;99.90;;;;;;4910519;28;38828;-69
2023/09/11 06:36:27;;;;;;;24.75;11.23;;;24.20;99.90;;;;;;4953442;28;20051;-69
2023/09/11 06:38:53;;;;;;;28.23;11.45;;;24.40;99.90;;;;;;4907287;28;61640;-69
2023/09/11 06:41:19;;;;;;;23.30;10.68;;;24.60;99.90;;;;;;4939986;29;20680;-69
2023/09/11 06:43:46;;;;;;;27.23;12.02;;;24.80;99.90;;;;;;4890637;28;142671;-70
2023/09/11 06:46:12;;;;;;;25.38;11.40;;;24.90;99.90;;;;;;4933392;28;20067;-70
2023/09/11 06:48:39;;;;;;;25.92;11.48;;;25.00;99.90;;;;;;4915216;28;115647;-70
2023/09/11 06:51:05;;;;;;;27.35;11.55;;;25.10;99.90;;;;;;4945754;28;20047;-69
2023/09/11 06:53:31;;;;;;;23.70;11.15;;;25.30;99.90;;;;;;4898341;28;172987;-70
2023/09/11 06:55:57;;;;;;;29.65;11.10;;;25.50;99.90;;;;;;4960203;28;20047;-70
2023/09/11 06:58:23;;;;;;;26.52;10.98;;;25.30;99.90;;;;;;4905186;28;204973;-70
2023/09/11 07:00:50;;;;;;;25.88;10.93;;;25.10;99.90;;;;;;4955429;28;20051;-70
2023/09/11 07:03:18;;;;;;;22.15;11.60;;;25.20;99.90;;;;;;4903386;28;134061;-69
2023/09/11 07:05:45;;;;;;;24.48;10.48;;;25.40;99.90;;;;;;4949800;28;20059;-70
2023/09/11 07:08:11;;;;;;;29.50;11.18;;;25.60;99.90;;;;;;4915030;28;94141;-69
2023/09/11 07:10:38;;;;;;;25.90;11.02;;;25.60;99.90;;;;;;4948711;28;20063;-71
2023/09/11 07:13:04;;;;;;;24.17;10.38;;;25.80;99.90;;;;;;4906201;28;242480;-69
2023/09/11 07:15:30;;;;;;;30.05;10.85;;;26.00;99.20;;;;;;4941926;28;20115;-70
2023/09/11 07:17:56;;;;;;;24.58;10.35;;;26.10;99.50;;;;;;4913565;28;28609;-70
2023/09/11 07:20:22;;;;;;;29.80;10.40;;;26.30;99.50;;;;;;4959250;28;20055;-70
2023/09/11 07:22:49;;;;;;;29.95;10.65;;;26.20;99.30;;;;;;4917095;28;39161;-70
2023/09/11 07:25:17;;;;;;;25.42;10.23;;;26.20;99.10;;;;;;4951279;28;20055;-70
2023/09/11 07:27:43;;;;;;;28.95;10.85;;;26.20;98.90;;;;;;4905809;28;160259;-70
2023/09/11 07:30:09;;;;;;;25.83;10.77;;;26.30;99.00;;;;;;4964422;28;20070;-70
2023/09/11 07:32:36;;;;;;;23.83;10.10;;;26.50;99.20;;;;;;4911024;28;20050;-69
2023/09/11 07:35:02;;;;;;;23.23;10.15;;;26.60;98.80;;;;;;4934402;29;20062;-70
2023/09/11 07:37:28;;;;;;;21.52;9.43;;;27.00;98.70;;;;;;4929103;28;20513;-66
2023/09/11 07:39:54;;;;;;;26.92;9.57;;;27.30;98.70;;;;;;4953869;28;20047;-70
2023/09/11 07:42:20;;;;;;;23.45;9.20;;;27.60;98.10;;;;;;4953924;28;20055;-71
2023/09/11 07:44:46;;;;;;;22.58;9.63;;;27.80;98.10;;;;;;4908333;28;20043;-71
2023/09/11 07:47:15;;;;;;;27.58;9.25;;;28.00;97.70;;;;;;4949325;29;20047;-70
2023/09/11 07:49:41;;;;;;;25.67;9.48;;;28.20;96.90;;;;;;4923512;28;20050;-70
2023/09/11 07:52:07;;;;;;;18.02;8.50;;;28.40;97.10;;;;;;4945186;28;20043;-69
2023/09/11 07:54:33;;;;;;;19.98;9.23;;;28.40;96.90;;;;;;4911629;28;143158;-70
2023/09/11 07:57:01;;;;;;;22.38;8.48;;;28.50;96.50;;;;;;4953681;28;20054;-70
2023/09/11 07:59:27;;;;;;;21.05;8.32;;;28.40;96.10;;;;;;4895887;28;20039;-70
2023/09/11 08:01:53;;;;;;;22.95;8.40;;;28.70;96.30;;;;;;4948463;28;20058;-71
2023/09/11 08:04:19;;;;;;;21.90;9.07;;;29.00;96.20;;;;;;4923090;28;20067;-71
2023/09/11 08:06:45;;;;;;;22.27;8.75;;;29.10;95.10;;;;;;4947843;28;20526;-70
2023/09/11 08:09:11;;;;;;;20.08;7.82;;;29.20;95.60;;;;;;4897627;28;20047;-71
2023/09/11 08:11:39;;;;;;;23.88;8.20;;;29.50;95.40;;;;;;4948766;28;20051;-70
2023/09/11 08:14:07;;;;;;;19.85;8.02;;;29.40;94.90;;;;;;4921537;28;20055;-71
2023/09/11 08:16:33;;;;;;;22.70;7.60;;;29.10;94.90;;;;;;4949424;28;20524;-71
2023/09/11 08:18:59;;;;;;;19.63;7.38;;;29.10;94.70;;;;;;4903259;28;20122;-71
2023/09/11 08:21:25;;;;;;;23.63;8.18;;;29.20;94.70;;;;;;4959324;28;20062;-71
2023/09/11 08:23:51;;;;;;;20.23;7.50;;;29.30;94.60;;;;;;4916942;28;20054;-70
2023/09/11 08:26:18;;;;;;;20.65;7.97;;;29.20;94.20;;;;;;4940395;28;20058;-70
2023/09/11 08:28:45;;;;;;;17.90;7.40;;;29.20;94.30;;;;;;4921477;28;20051;-71
2023/09/11 08:31:11;;;;;;;16.65;7.75;;;29.30;93.90;;;;;;4951519;28;20482;-71
2023/09/11 08:33:37;;;;;;;22.90;7.68;;;29.50;94.10;;;;;;4911875;28;20058;-70
2023/09/11 08:36:03;;;;;;;29.95;7.95;;;29.60;94.10;;;;;;4950842;28;20504;-70
2023/09/11 08:38:29;;;;;;;23.50;7.18;;;29.70;93.20;;;;;;4918853;28;20051;-70
2023/09/11 08:40:55;;;;;;;22.80;7.50;;;29.60;93.60;;;;;;4955274;28;20055;-70
2023/09/11 08:43:24;;;;;;;22.30;8.00;;;29.70;93.60;;;;;;4914680;28;20105;-70
2023/09/11 08:45:51;;;;;;;19.60;7.80;;;29.90;93.20;;;;;;4943695;28;20676;-70
2023/09/11 08:48:19;;;;;;;17.60;7.18;;;29.40;92.60;;;;;;4910693;28;20544;-70
2023/09/11 08:50:56;;;;;;;21.55;7.13;;;29.50;93.00;;;;;;4955589;28;20055;-70
2023/09/11 08:53:24;;;;;;;18.73;6.90;;;29.80;92.20;;;;;;4896703;28;48276;-70
2023/09/11 08:55:52;;;;;;;20.50;7.20;;;29.80;92.70;;;;;;4920612;29;20070;-70
2023/09/11 08:58:21;;;;;;;19.02;7.35;;;30.10;92.80;;;;;;4902130;28;20514;-70
2023/09/11 09:00:48;;;;;;;18.35;7.10;;;30.50;92.00;;;;;;4936586;28;20589;-70
2023/09/11 09:03:16;;;;;;;18.33;6.97;;;30.40;91.50;;;;;;4903127;28;20058;-70
2023/09/11 09:05:42;;;;;;;21.65;7.40;;;30.40;91.90;;;;;;4946309;28;20047;-71
2023/09/11 09:08:12;;;;;;;18.30;7.57;;;30.70;91.80;;;;;;4912492;28;20065;-69
2023/09/11 09:10:41;;;;;;;17.60;7.32;;;31.20;91.50;;;;;;4955029;28;20059;-70
2023/09/11 09:13:08;;;;;;;20.80;7.03;;;31.40;91.80;;;;;;4912454;28;20051;-72
2023/09/11 09:15:40;;;;;;;16.95;6.82;;;31.80;91.00;;;;;;4941407;28;20062;-70
2023/09/11 09:18:07;;;;;;;22.45;7.07;;;31.60;90.90;;;;;;4908984;28;20063;-70
2023/09/11 09:20:33;;;;;;;18.27;7.07;;;31.60;90.40;;;;;;4956355;28;20378;-69
2023/09/11 09:23:01;;;;;;;16.00;7.05;;;31.40;90.60;;;;;;4925598;28;20053;-71
2023/09/11 09:25:28;;;;;;;17.35;7.43;;;31.40;90.60;;;;;;4959525;28;20044;-71
2023/09/11 09:27:58;;;;;;;19.75;7.43;;;31.80;90.00;;;;;;4913628;28;20057;-70
2023/09/11 09:30:29;;;;;;;16.15;7.75;;;31.90;88.90;;;;;;4942781;28;20087;-71
2023/09/11 09:32:56;;;;;;;18.65;7.25;;;31.70;90.00;;;;;;4907762;28;20047;-70
2023/09/11 09:35:26;;;;;;;17.95;7.72;;;31.80;90.00;;;;;;4956937;28;20623;-70
2023/09/11 09:37:54;;;;;;;18.38;7.90;;;32.00;89.20;;;;;;4911600;28;20074;-70
2023/09/11 09:40:32;;;;;;;19.25;7.78;;;32.10;89.80;;;;;;4953200;28;20059;-71
2023/09/11 09:42:59;;;;;;;20.20;7.82;;;32.30;89.00;;;;;;4914945;28;20110;-72
2023/09/11 09:45:40;;;;;;;16.02;8.30;;;32.70;90.00;;;;;;4939256;28;20054;-71
2023/09/11 09:48:07;;;;;;;21.55;8.23;;;33.00;87.80;;;;;;4911220;28;20055;-71
2023/09/11 09:51:02;;;;;;;19.85;7.70;;;32.70;89.00;;;;;;4948121;28;20055;-70
2023/09/11 09:53:41;;;;;;;22.52;7.65;;;33.00;87.90;;;;;;4905280;28;62875;-71
2023/09/11 09:56:09;;;;;;;18.10;7.70;;;33.40;89.10;;;;;;4951844;28;20058;-70
2023/09/11 09:58:37;;;;;;;16.83;7.63;;;33.90;87.50;;;;;;4902660;28;20081;-71
2023/09/11 10:01:08;;;;;;;17.45;8.15;;;34.30;87.20;;;;;;4949954;28;20059;-71
2023/09/11 10:03:45;;;;;;;16.45;8.27;;;34.50;87.10;;;;;;4915810;28;20050;-70
2023/09/11 10:06:16;;;;;;;20.65;7.95;;;34.80;86.50;;;;;;4953930;28;20059;-70
2023/09/11 10:08:42;;;;;;;19.05;8.27;;;34.60;86.00;;;;;;4921091;28;20053;-70
2023/09/11 10:11:27;;;;;;;17.30;7.68;;;34.60;86.60;;;;;;4953393;28;20039;-71
2023/09/11 10:13:57;;;;;;;19.77;6.97;;;34.60;85.70;;;;;;4923667;28;20043;-70
2023/09/11 10:16:25;;;;;;;21.10;6.63;;;34.40;85.60;;;;;;4958946;28;20043;-71
2023/09/11 10:18:53;;;;;;;15.70;6.18;;;34.60;85.50;;;;;;4922373;28;20066;-71
2023/09/11 10:21:20;;;;;;;21.90;5.90;;;34.80;84.60;;;;;;4955088;28;20516;-71
2023/09/11 10:23:47;;;;;;;15.82;6.00;;;34.70;84.10;;;;;;4925648;28;20051;-71
2023/09/11 10:26:19;;;;;;;18.95;6.65;;;34.70;84.30;;;;;;4949427;28;20163;-70
2023/09/11 10:28:49;;;;;;;20.48;6.60;;;34.90;84.00;;;;;;4914513;28;20051;-71
2023/09/11 10:31:37;;;;;;;14.73;6.60;;;34.90;83.80;;;;;;4950089;28;20039;-70
2023/09/11 10:34:07;;;;;;;18.35;6.72;;;34.50;84.10;;;;;;4924722;28;20061;-72
2023/09/11 10:36:38;;;;;;;17.75;6.68;;;34.40;84.60;;;;;;4953545;28;20055;-72
2023/09/11 10:39:08;;;;;;;15.13;6.43;;;34.40;84.90;;;;;;4909816;28;20070;-71
2023/09/11 10:41:35;;;;;;;17.35;6.80;;;34.20;84.10;;;;;;4948493;28;20059;-70
2023/09/11 10:44:02;;;;;;;15.32;7.32;;;34.00;85.30;;;;;;4921171;28;20071;-71
2023/09/11 10:46:34;;;;;;;15.85;7.85;;;34.10;85.40;;;;;;4945519;28;20059;-71
2023/09/11 10:49:12;;;;;;;19.90;7.55;;;34.20;84.60;;;;;;4919715;28;20074;-71
2023/09/11 10:51:38;;;;;;;12.20;7.18;;;33.70;85.80;;;;;;4946282;28;20055;-71
2023/09/11 10:54:07;;;;;;;18.90;6.78;;;33.80;86.20;;;;;;4908934;28;158051;-71
2023/09/11 10:56:36;;;;;;;15.23;7.78;;;34.10;86.60;;;;;;4951204;28;20054;-72
2023/09/11 10:59:03;;;;;;;17.48;7.78;;;34.50;84.90;;;;;;4913941;28;20070;-71
2023/09/11 11:01:32;;;;;;;19.00;8.23;;;34.50;85.10;;;;;;4955623;28;20529;-71
2023/09/11 11:04:02;;;;;;;17.60;6.57;;;34.40;85.00;;;;;;4921680;28;20054;-71
2023/09/11 11:06:31;;;;;;;15.25;6.93;;;34.60;85.00;;;;;;4951172;28;20055;-71
2023/09/11 11:08:57;;;;;;;16.05;8.02;;;34.80;84.60;;;;;;4921308;28;20101;-71
2023/09/11 11:11:28;;;;;;;15.40;7.30;;;34.70;84.50;;;;;;4950731;28;20055;-71
2023/09/11 11:14:10;;;;;;;15.20;6.07;;;34.80;84.90;;;;;;4923433;28;20061;-72
2023/09/11 11:16:37;;;;;;;13.93;5.80;;;34.60;82.70;;;;;;4950719;28;20070;-72
2023/09/11 11:19:04;;;;;;;21.05;7.05;;;34.50;83.60;;;;;;4907780;28;20047;-71
2023/09/11 11:21:40;;;;;;;16.45;6.30;;;34.40;83.20;;;;;;4949751;28;20055;-72
2023/09/11 11:24:09;;;;;;;13.45;6.30;;;34.60;81.70;;;;;;4925023;28;21134;-71
2023/09/11 11:26:40;;;;;;;17.40;7.35;;;34.40;83.00;;;;;;4951029;28;20046;-72
2023/09/11 11:29:06;;;;;;;16.33;5.93;;;34.10;82.40;;;;;;4922528;28;20057;-72
2023/09/11 11:31:32;;;;;;;16.20;6.28;;;34.10;83.10;;;;;;4951932;28;20055;-72
2023/09/11 11:33:59;;;;;;;12.43;5.68;;;34.10;82.50;;;;;;4913158;28;20046;-72
2023/09/11 11:36:27;;;;;;;16.33;6.45;;;34.30;82.20;;;;;;4951240;28;20066;-71
2023/09/11 11:38:54;;;;;;;16.67;6.10;;;34.20;82.40;;;;;;4924090;28;20055;-72
2023/09/11 11:41:21;;;;;;;15.20;6.10;;;34.50;82.10;;;;;;4953944;28;20433;-72
2023/09/11 11:43:47;;;;;;;13.40;5.97;;;34.30;83.10;;;;;;4908416;28;20039;-71
2023/09/11 11:46:15;;;;;;;12.52;5.90;;;34.70;82.20;;;;;;4941782;28;20417;-72
2023/09/11 11:48:42;;;;;;;12.57;5.72;;;34.70;81.80;;;;;;4907687;28;20070;-72
2023/09/11 11:51:08;;;;;;;14.90;6.32;;;34.80;81.90;;;;;;4948603;28;20075;-71
2023/09/11 11:53:35;;;;;;;13.77;6.10;;;34.70;81.50;;;;;;4905647;28;27612;-71
2023/09/11 11:56:03;;;;;;;11.90;4.43;;;34.90;81.70;;;;;;4950509;28;20047;-72
2023/09/11 11:58:29;;;;;;;10.73;4.57;;;35.20;78.20;;;;;;4914163;28;20047;-72
2023/09/11 12:01:04;;;;;;;11.88;4.35;;;35.00;79.20;;;;;;4951362;28;20062;-72
2023/09/11 12:03:43;;;;;;;9.75;4.90;;;35.30;78.90;;;;;;4914937;28;20557;-73
2023/09/11 12:06:10;;;;;;;12.18;4.70;;;35.10;78.60;;;;;;4949948;28;20059;-72
2023/09/11 12:08:36;;;;;;;16.52;5.45;;;34.80;79.50;;;;;;4918920;28;20065;-72
2023/09/11 12:11:02;;;;;;;16.40;5.38;;;34.40;80.30;;;;;;4954090;28;20039;-72
2023/09/11 12:13:28;;;;;;;11.63;4.60;;;34.10;81.50;;;;;;4915349;28;20055;-72
2023/09/11 12:15:57;;;;;;;10.80;4.55;;;34.30;80.20;;;;;;4954043;28;20055;-71
2023/09/11 12:18:28;;;;;;;11.45;4.97;;;34.10;79.90;;;;;;4909460;28;20051;-71
2023/09/11 12:20:59;;;;;;;12.27;5.10;;;34.40;79.80;;;;;;4950446;28;20043;-72
2023/09/11 12:23:25;;;;;;;10.80;4.45;;;34.20;80.20;;;;;;4907170;28;20047;-72
2023/09/11 12:25:52;;;;;;;10.82;4.80;;;34.30;79.70;;;;;;4937890;29;20497;-72
2023/09/11 12:28:23;;;;;;;14.77;4.45;;;34.50;79.80;;;;;;4916012;28;20050;-72
2023/09/11 12:30:50;;;;;;;11.32;4.70;;;34.90;79.70;;;;;;4953023;28;20066;-72